createdAt,value
2023-05-19T02:01:38.665Z,78831.03
2023-05-19T02:04:22.720Z,78828.72
2023-05-19T02:28:35.039Z,78826.25
2023-05-19T02:31:07.702Z,78840.72
2023-05-19T02:33:37.723Z,78811.44
2023-05-19T02:36:11.313Z,78840.88
2023-05-19T02:53:21.457Z,78820.06
2023-05-19T02:55:51.033Z,78838.41
2023-05-19T02:58:22.436Z,78810.88
2023-05-19T03:00:52.694Z,78808.72
2023-05-19T03:03:23.092Z,78821.44
2023-05-19T03:05:55.494Z,78842.97
2023-05-19T03:08:26.117Z,78843.84
2023-05-19T03:10:57.233Z,78843.19
2023-05-19T03:13:27.153Z,78850.50
2023-05-19T03:16:00.078Z,78837.78
2023-05-19T03:18:30.473Z,78836.81
2023-05-19T03:21:01.103Z,78840.66
2023-05-19T03:23:32.195Z,78820.25
2023-05-19T03:26:02.676Z,78853.06
2023-05-19T03:28:33.239Z,78804.59
2023-05-19T03:31:03.729Z,78845.44
2023-05-19T03:33:39.274Z,78833.22
2023-05-19T03:36:10.157Z,78839.41
2023-05-19T03:38:42.369Z,78842.69
2023-05-19T03:41:12.276Z,78832.59
2023-05-19T03:43:42.518Z,78846.69
2023-05-19T03:46:12.796Z,78845.66
2023-05-19T03:49:01.094Z,78797.78
2023-05-19T03:51:49.068Z,78838.78
2023-05-19T03:54:27.563Z,78839.69
2023-05-19T03:56:57.969Z,78852.06
2023-05-19T03:59:28.260Z,78842.31
2023-05-19T04:01:59.411Z,78845.81
2023-05-19T04:04:29.851Z,78825.13
2023-05-19T04:07:00.038Z,78828.06
2023-05-19T04:09:29.847Z,78838.53
2023-05-19T04:12:00.024Z,78843.53
2023-05-19T04:14:30.116Z,78853.72
2023-05-19T04:17:00.478Z,78821.47
2023-05-19T04:19:30.495Z,78842.78
2023-05-19T04:22:00.578Z,78841.78
2023-05-19T04:24:31.054Z,78831.25
2023-05-19T04:27:06.132Z,78752.59
2023-05-19T04:29:37.239Z,78827.69
2023-05-19T04:32:08.300Z,78816.06
2023-05-19T04:34:41.798Z,78852.16
2023-05-19T04:37:11.939Z,78847.16
2023-05-19T04:39:46.918Z,78747.22
2023-05-19T04:42:20.879Z,78846.03
2023-05-19T04:44:53.116Z,78838.88
2023-05-19T04:47:29.250Z,78819.63
2023-05-19T04:50:02.179Z,78834.75
2023-05-19T04:52:32.359Z,78834.13
2023-05-19T04:55:03.878Z,78848.47
2023-05-19T04:57:34.151Z,78852.19
2023-05-19T05:00:06.841Z,78835.50
2023-05-19T05:02:44.453Z,78836.50
2023-05-19T05:05:15.916Z,78825.28
2023-05-19T05:07:45.861Z,78829.34
2023-05-19T05:10:15.736Z,78856.50
2023-05-19T05:12:46.430Z,78852.56
2023-05-19T05:15:16.914Z,78836.16
2023-05-19T05:17:49.988Z,78840.50
2023-05-19T05:20:21.154Z,78836.44
2023-05-19T05:22:51.714Z,78856.25
2023-05-19T05:25:23.059Z,78852.06
2023-05-19T05:27:53.849Z,78865.09
2023-05-19T05:30:23.882Z,78854.50
2023-05-19T05:32:55.110Z,78848.28
2023-05-19T05:35:36.931Z,78843.63
2023-05-19T05:38:08.511Z,78855.00
2023-05-19T05:40:39.838Z,78866.63
2023-05-19T05:43:11.149Z,78832.53
2023-05-19T05:45:48.287Z,78863.34
2023-05-19T05:48:19.387Z,78860.63
2023-05-19T05:50:51.474Z,78854.38
2023-05-19T05:53:28.274Z,78836.50
2023-05-19T05:55:58.414Z,78843.84
2023-05-19T05:58:39.093Z,78841.84
2023-05-19T06:01:12.665Z,78848.38
2023-05-19T06:03:47.808Z,78848.94
2023-05-19T06:06:22.599Z,78853.28
2023-05-19T06:08:54.018Z,78844.09
2023-05-19T06:11:24.834Z,78785.06
2023-05-19T06:13:56.664Z,78851.88
2023-05-19T06:16:46.037Z,78846.75
2023-05-19T06:19:17.994Z,78807.78
2023-05-19T06:21:48.598Z,78839.41
2023-05-19T06:24:18.356Z,78845.53
2023-05-19T06:26:48.359Z,78838.13
2023-05-19T06:29:19.692Z,78817.03
2023-05-19T06:31:50.407Z,78820.34
2023-05-19T06:34:20.452Z,78849.97
2023-05-19T06:36:50.455Z,78840.03
2023-05-19T06:39:22.124Z,78828.09
2023-05-19T06:41:51.977Z,78813.50
2023-05-19T06:44:48.169Z,78838.06
2023-05-19T06:47:19.387Z,78816.53
2023-05-19T06:49:56.942Z,78833.06
2023-05-19T06:52:30.519Z,78796.06
2023-05-19T06:55:00.506Z,78795.22
2023-05-19T06:57:30.358Z,78821.75
2023-05-19T07:00:00.605Z,78843.06
2023-05-19T07:02:30.945Z,78836.59
2023-05-19T07:05:00.998Z,78826.44
2023-05-19T07:07:31.031Z,78833.75
2023-05-19T07:10:01.657Z,78816.25
2023-05-19T07:12:33.143Z,78813.81
2023-05-19T07:15:03.862Z,78813.56
2023-05-19T07:17:34.861Z,78832.25
2023-05-19T07:20:07.917Z,78822.44
2023-05-19T07:22:40.018Z,78835.50
2023-05-19T07:25:10.919Z,78826.59
2023-05-19T07:27:42.834Z,78823.81
2023-05-19T07:30:13.156Z,78811.13
2023-05-19T07:32:43.193Z,78828.38
2023-05-19T07:35:13.089Z,78767.13
2023-05-19T07:37:43.252Z,78828.91
2023-05-19T07:40:13.140Z,78819.16
2023-05-19T07:42:43.699Z,78831.13
2023-05-19T07:45:13.954Z,78823.53
2023-05-19T07:47:43.884Z,78827.53
2023-05-19T07:50:13.955Z,78822.47
2023-05-19T07:52:43.702Z,78792.53
2023-05-19T07:55:14.996Z,78805.44
2023-05-19T07:57:45.009Z,78820.59
2023-05-19T08:00:15.379Z,78829.38
2023-05-19T08:02:45.854Z,78800.25
2023-05-19T08:05:16.347Z,78807.03
2023-05-19T08:07:46.754Z,78820.78
2023-05-19T08:10:17.514Z,78816.75
2023-05-19T08:12:48.710Z,78814.34
2023-05-19T08:15:20.356Z,78811.09
2023-05-19T08:17:50.526Z,78827.25
2023-05-19T08:20:20.278Z,78813.19
2023-05-19T08:22:50.512Z,78828.25
2023-05-19T08:25:21.134Z,78830.31
2023-05-19T08:27:51.235Z,78809.94
2023-05-19T08:30:21.414Z,78806.06
2023-05-19T08:32:51.726Z,78806.09
2023-05-19T08:35:22.343Z,78820.00
2023-05-19T08:37:52.818Z,78801.72
2023-05-19T08:40:23.832Z,78773.75
2023-05-19T08:42:53.941Z,78784.59
2023-05-19T08:45:23.838Z,78801.72
2023-05-19T08:47:54.134Z,78812.69
2023-05-19T08:50:31.875Z,78797.22
2023-05-19T08:53:31.380Z,78800.50
2023-05-19T08:56:19.946Z,78805.41
2023-05-19T08:58:52.152Z,78795.41
2023-05-19T09:01:24.512Z,78792.31
2023-05-19T09:03:54.624Z,78801.38
2023-05-19T09:06:24.836Z,78787.00
2023-05-19T09:08:54.758Z,78782.00
2023-05-19T09:11:24.516Z,78773.69
2023-05-19T09:13:54.442Z,78721.53
2023-05-19T09:16:25.183Z,78793.19
2023-05-19T09:18:59.897Z,78776.81
2023-05-19T09:21:33.634Z,78769.91
2023-05-19T09:24:08.520Z,78772.28
2023-05-19T09:26:43.281Z,78777.00
2023-05-19T09:29:14.884Z,78782.34
2023-05-19T09:31:52.819Z,78762.63
2023-05-19T09:34:25.258Z,78773.94
2023-05-19T09:36:56.016Z,78748.59
2023-05-19T09:39:27.217Z,78751.44
2023-05-19T09:42:00.368Z,78749.53
2023-05-19T09:44:31.619Z,78749.38
2023-05-19T09:47:01.631Z,78780.25
2023-05-19T09:49:34.104Z,78777.47
2023-05-19T09:52:07.253Z,78760.69
2023-05-19T09:54:37.075Z,78763.25
2023-05-19T09:57:09.295Z,78764.25
2023-05-19T09:59:42.733Z,78748.25
2023-05-19T10:02:21.583Z,78759.88
2023-05-19T10:04:53.412Z,78765.22
2023-05-19T10:07:25.609Z,78756.16
2023-05-19T10:09:58.582Z,78761.19
2023-05-19T10:12:29.393Z,78766.53
2023-05-19T10:15:00.675Z,78764.25
2023-05-19T10:17:30.568Z,78727.59
2023-05-19T10:20:02.515Z,78766.34
2023-05-19T10:22:34.333Z,78735.97
2023-05-19T10:25:04.283Z,78763.25
2023-05-19T10:27:38.199Z,78768.75
2023-05-19T10:30:16.666Z,78715.13
2023-05-19T10:32:53.950Z,78759.50
2023-05-19T10:35:49.083Z,78735.47
2023-05-19T10:38:26.874Z,78763.09
2023-05-19T10:41:15.212Z,78759.97
2023-05-19T10:44:16.035Z,78762.66
2023-05-19T10:46:46.530Z,78736.81
2023-05-19T10:49:25.657Z,78754.66
2023-05-19T10:52:01.016Z,78749.22
2023-05-19T10:54:56.146Z,78742.75
2023-05-19T10:57:30.117Z,78756.44
2023-05-19T11:00:02.599Z,78713.84
2023-05-19T11:02:46.295Z,78719.38
2023-05-19T11:05:19.634Z,78746.00
2023-05-19T11:08:13.075Z,78713.88
2023-05-19T11:10:47.799Z,78733.38
2023-05-19T11:13:26.148Z,78738.53
2023-05-19T11:15:58.921Z,78744.53
2023-05-19T11:18:28.819Z,78685.75
2023-05-19T11:21:05.828Z,78732.91
2023-05-19T11:23:43.527Z,78731.25
2023-05-19T11:26:15.302Z,78731.09
2023-05-19T11:28:45.531Z,78706.03
2023-05-19T11:31:16.049Z,78736.97
2023-05-19T11:33:46.214Z,78701.81
2023-05-19T11:36:18.217Z,78728.06
2023-05-19T11:41:41.996Z,78724.88
2023-05-19T11:44:14.841Z,78705.09
2023-05-19T11:46:46.397Z,78706.78
2023-05-19T11:49:18.677Z,78701.97
2023-05-19T11:51:49.159Z,78721.59
2023-05-19T11:54:20.697Z,78720.00
2023-05-19T11:56:50.678Z,78712.03
2023-05-19T11:59:32.255Z,78712.03
2023-05-19T12:02:20.396Z,78701.25
2023-05-19T12:04:51.189Z,78723.91
2023-05-19T12:07:24.472Z,78719.56
2023-05-19T12:09:55.166Z,78689.59
2023-05-19T12:12:25.919Z,78721.84
2023-05-19T12:14:56.274Z,78733.50
2023-05-19T12:17:26.623Z,78723.84
2023-05-19T12:19:58.515Z,78736.25
2023-05-19T12:22:28.995Z,78734.56
2023-05-19T12:24:59.316Z,78722.31
2023-05-19T12:27:30.115Z,78712.13
2023-05-19T12:30:00.295Z,78738.16
2023-05-19T12:32:30.693Z,78681.38
2023-05-19T12:35:01.704Z,78719.09
2023-05-19T12:37:32.117Z,78703.66
2023-05-19T12:40:03.299Z,78728.25
2023-05-19T12:42:34.115Z,78712.41
2023-05-19T12:45:07.314Z,78710.69
2023-05-19T12:47:38.130Z,78716.34
2023-05-19T12:50:10.704Z,78716.56
2023-05-19T12:52:49.217Z,78722.63
2023-05-19T12:55:22.296Z,78680.63
2023-05-19T12:57:59.622Z,78720.25
2023-05-19T13:00:30.988Z,78702.00
2023-05-19T13:03:07.856Z,78726.34
2023-05-19T13:05:45.106Z,78724.50
2023-05-19T13:08:17.541Z,78711.94
2023-05-19T13:10:49.361Z,78724.22
2023-05-19T13:13:19.980Z,78716.94
2023-05-19T13:15:50.611Z,78741.66
2023-05-19T13:18:21.080Z,78750.50
2023-05-19T13:20:52.837Z,78731.66
2023-05-19T13:23:23.720Z,78716.78
2023-05-19T13:25:54.356Z,78746.50
2023-05-19T13:28:24.832Z,78735.84
2023-05-19T13:30:56.506Z,78757.38
2023-05-19T13:33:27.017Z,78744.31
2023-05-19T13:35:58.363Z,78730.44
2023-05-19T13:38:28.920Z,78742.56
2023-05-19T13:40:58.996Z,78738.34
2023-05-19T13:43:28.974Z,78765.06
2023-05-19T13:45:59.586Z,78769.91
2023-05-19T13:48:29.698Z,78773.72
2023-05-19T13:50:59.719Z,78752.19
2023-05-19T13:53:31.405Z,78790.94
2023-05-19T13:56:03.397Z,78772.03
2023-05-19T13:58:33.395Z,78775.97
2023-05-19T14:01:03.237Z,78788.09
2023-05-19T14:03:33.315Z,78773.59
2023-05-19T14:06:03.479Z,78789.78
2023-05-19T14:08:34.283Z,78761.03
2023-05-19T14:11:04.837Z,78781.03
2023-05-19T14:13:38.277Z,78800.16
2023-05-19T14:16:11.603Z,78815.22
2023-05-19T14:18:41.908Z,78804.09
2023-05-19T14:21:12.758Z,78812.25
2023-05-19T14:23:43.211Z,78784.50
2023-05-19T14:26:13.214Z,78791.00
2023-05-19T14:28:43.852Z,78807.81
2023-05-19T14:31:15.346Z,78771.06
2023-05-19T14:33:46.200Z,78776.63
2023-05-19T14:36:16.273Z,78801.53
2023-05-19T14:38:46.192Z,78811.16
2023-05-19T14:41:16.365Z,78822.63
2023-05-19T14:43:47.000Z,78815.09
2023-05-19T14:46:18.050Z,78779.72
2023-05-19T14:48:48.512Z,78813.09
2023-05-19T14:51:18.582Z,78818.22
